Time;durP1;ratioP1;P1;durP2;ratioP2;P2;SDS_P1;SDS_P2;PMS_P1;PMS_P2;Temp;Humidity;BMP_temperature;BMP_pressure;BME280_temperature;BME280_humidity;BME280_pressure;Samples;Min_cycle;Max_cycle;Signal;HPM_P1;HPM_P2
2022/02/24 05:22:14;;;;;;;;;;;;;;;10.45;36.09;101719.19;145002;571;1414;-88
2022/02/24 05:24:40;;;;;;;;;;;;;;;10.39;36.08;101740.59;145002;923;1019;-88
2022/02/24 05:27:09;;;;;;;;;;;;;;;10.32;36.00;101754.03;145002;923;1017;-91
2022/02/24 05:29:35;;;;;;;;;;;;;;;10.44;35.93;101754.66;145002;924;1017;-89
2022/02/24 05:32:01;;;;;;;;;;;;;;;10.45;35.90;101777.22;145002;920;1016;-90
2022/02/24 05:34:29;;;;;;;;;;;;;;;10.38;35.70;101795.03;145002;924;1016;-91
2022/02/24 05:36:57;;;;;;;;;;;;;;;10.46;35.64;101811.84;145002;924;1017;-89
2022/02/24 05:44:30;;;;;;;;;;;;;;;10.41;33.97;101827.19;145002;930;1016;-87
2022/02/24 05:46:58;;;;;;;;;;;;;;;10.62;34.63;101834.22;145002;924;1017;-91
2022/02/24 05:49:24;;;;;;;;;;;;;;;10.74;34.82;101834.81;145002;925;1017;-89
2022/02/24 05:51:51;;;;;;;;;;;;;;;10.82;33.85;101833.47;145002;921;1017;-91
2022/02/24 05:59:28;;;;;;;;;;;;;;;11.01;32.80;101843.00;145002;663;1368;-88
2022/02/24 06:01:57;;;;;;;;;;;;;;;10.84;32.01;101834.41;145002;926;1016;-88
2022/02/24 06:04:23;;;;;;;;;;;;;;;10.98;31.86;101842.84;145002;922;1016;-90
2022/02/24 06:06:51;;;;;;;;;;;;;;;10.96;31.63;101838.38;145002;926;1018;-89
2022/02/24 06:09:17;;;;;;;;;;;;;;;10.86;31.96;101842.28;145002;922;1017;-89
2022/02/24 06:11:44;;;;;;;;;;;;;;;10.87;32.15;101844.94;145002;926;1016;-89
2022/02/24 06:14:10;;;;;;;;;;;;;;;11.04;31.41;101848.34;145002;922;1018;-91
2022/02/24 06:24:19;;;;;;;;;;;;;;;11.22;31.93;101845.66;145002;929;1016;-90
2022/02/24 06:26:46;;;;;;;;;;;;;;;10.98;32.13;101848.06;145002;925;1017;-90
2022/02/24 06:29:12;;;;;;;;;;;;;;;11.02;32.52;101854.25;145002;925;1016;-89
2022/02/24 06:31:39;;;;;;;;;;;;;;;11.11;32.32;101853.81;145002;924;1016;-87
2022/02/24 06:34:05;;;;;;;;;;;;;;;11.10;31.89;101854.63;145002;924;1016;-90
2022/02/24 06:39:03;;;;;;;;;;;;;;;11.08;32.86;101857.16;145002;588;1413;-88
2022/02/24 06:41:29;;;;;;;;;;;;;;;11.36;32.99;101858.41;145002;927;1018;-89
2022/02/24 06:43:56;;;;;;;;;;;;;;;11.15;32.34;101879.09;145002;922;1019;-89
2022/02/24 06:46:22;;;;;;;;;;;;;;;11.35;32.53;101864.44;145002;926;1023;-87
2022/02/24 06:48:48;;;;;;;;;;;;;;;11.46;32.85;101865.78;145002;922;1017;-89
2022/02/24 06:51:14;;;;;;;;;;;;;;;11.67;31.75;101877.97;145002;922;1017;-90
2022/02/24 06:53:41;;;;;;;;;;;;;;;11.62;32.79;101876.03;145002;917;1018;-90
2022/02/24 06:56:08;;;;;;;;;;;;;;;11.85;32.19;101870.97;145002;926;1017;-86
2022/02/24 06:58:34;;;;;;;;;;;;;;;12.05;31.75;101873.56;145002;922;1017;-89
2022/02/24 07:01:04;;;;;;;;;;;;;;;12.03;32.08;101870.87;145002;926;1016;-91
2022/02/24 07:03:30;;;;;;;;;;;;;;;12.23;32.16;101870.81;145002;922;1020;-91
2022/02/24 07:06:05;;;;;;;;;;;;;;;12.13;31.54;101862.62;145002;619;1452;-90
2022/02/24 07:13:47;;;;;;;;;;;;;;;12.49;32.09;101871.91;145002;578;1427;-90
2022/02/24 07:18:45;;;;;;;;;;;;;;;12.42;32.25;101865.53;145001;928;2000;-89
2022/02/24 07:21:11;;;;;;;;;;;;;;;12.44;32.47;101866.50;145002;925;1019;-84
2022/02/24 07:23:37;;;;;;;;;;;;;;;12.41;31.85;101863.78;145002;607;1402;-89
2022/02/24 07:26:04;;;;;;;;;;;;;;;12.73;31.73;101861.56;145002;927;1017;-88
2022/02/24 07:31:21;;;;;;;;;;;;;;;12.59;32.13;101865.34;145002;588;1420;-89
2022/02/24 07:33:52;;;;;;;;;;;;;;;12.05;31.75;101845.81;145002;921;1017;-91
2022/02/24 07:41:29;;;;;;;;;;;;;;;11.58;32.42;101868.03;145002;464;1418;-91
2022/02/24 07:43:55;;;;;;;;;;;;;;;11.49;32.56;101862.44;145002;921;1018;-89
2022/02/24 07:46:27;;;;;;;;;;;;;;;11.38;32.58;101865.44;145002;920;1016;-90
2022/02/24 07:48:55;;;;;;;;;;;;;;;11.10;33.03;101878.88;145002;920;1018;-89
2022/02/24 07:51:24;;;;;;;;;;;;;;;11.22;34.44;101875.97;145002;920;1016;-92
2022/02/24 07:53:50;;;;;;;;;;;;;;;11.25;33.09;101856.22;145002;919;1020;-88
2022/02/24 07:56:17;;;;;;;;;;;;;;;11.13;33.25;101866.03;145002;920;1016;-89
2022/02/24 07:58:44;;;;;;;;;;;;;;;11.17;33.61;101872.28;145002;921;1021;-87
2022/02/24 08:01:12;;;;;;;;;;;;;;;11.29;33.80;101862.44;145002;920;1017;-91
2022/02/24 08:03:41;;;;;;;;;;;;;;;11.34;33.43;101870.44;145002;920;1016;-89
2022/02/24 08:13:53;;;;;;;;;;;;;;;11.74;35.05;101857.50;145001;468;1998;-90
2022/02/24 08:16:19;;;;;;;;;;;;;;;11.72;35.06;101847.84;145002;925;1018;-89
2022/02/24 08:18:45;;;;;;;;;;;;;;;11.79;35.38;101860.28;145002;921;1016;-90
2022/02/24 08:21:11;;;;;;;;;;;;;;;11.94;35.74;101857.47;145002;926;1019;-88
2022/02/24 08:23:39;;;;;;;;;;;;;;;12.04;35.22;101853.53;145002;921;1017;-90
2022/02/24 08:26:14;;;;;;;;;;;;;;;12.39;35.67;101838.50;145002;925;1020;-87
2022/02/24 08:28:41;;;;;;;;;;;;;;;12.58;34.83;101855.75;145002;921;1018;-88
2022/02/24 08:31:07;;;;;;;;;;;;;;;12.95;34.67;101839.81;145002;925;1017;-88
2022/02/24 08:33:33;;;;;;;;;;;;;;;13.16;35.25;101844.94;145002;921;1017;-88
2022/02/24 08:36:00;;;;;;;;;;;;;;;13.25;33.88;101840.06;145002;926;1018;-89
2022/02/24 08:38:33;;;;;;;;;;;;;;;13.25;34.42;101821.81;145002;920;1020;-88
2022/02/24 08:40:59;;;;;;;;;;;;;;;13.55;33.90;101835.94;145002;925;1019;-88
2022/02/24 08:43:26;;;;;;;;;;;;;;;13.40;33.65;101803.25;145002;921;1019;-88
2022/02/24 08:46:01;;;;;;;;;;;;;;;13.20;33.36;101805.12;145002;925;1021;-89
2022/02/24 08:48:36;;;;;;;;;;;;;;;13.39;32.94;101801.50;145002;921;1017;-90
2022/02/24 08:51:42;;;;;;;;;;;;;;;13.43;33.95;101795.53;145002;926;1018;-92
2022/02/24 08:59:36;;;;;;;;;;;;;;;13.80;32.83;101785.47;145001;588;2000;-90
2022/02/24 09:02:04;;;;;;;;;;;;;;;14.04;33.23;101766.25;145002;925;1017;-92
2022/02/24 09:04:30;;;;;;;;;;;;;;;14.09;31.90;101762.97;145002;920;1016;-91
2022/02/24 09:06:58;;;;;;;;;;;;;;;13.81;32.43;101745.50;145002;919;1017;-90
2022/02/24 09:09:27;;;;;;;;;;;;;;;13.75;32.24;101746.19;145002;920;1019;-89
2022/02/24 09:11:56;;;;;;;;;;;;;;;13.45;32.03;101735.59;145002;924;1020;-87
2022/02/24 09:14:23;;;;;;;;;;;;;;;13.50;32.78;101736.62;145002;919;1018;-86
2022/02/24 09:16:49;;;;;;;;;;;;;;;13.30;32.46;101730.72;145002;924;1020;-89
2022/02/24 09:19:15;;;;;;;;;;;;;;;13.47;32.71;101743.47;145002;920;1016;-85
2022/02/24 09:21:50;;;;;;;;;;;;;;;13.15;32.65;101753.62;145002;920;1017;-88
2022/02/24 09:24:17;;;;;;;;;;;;;;;13.02;32.87;101742.75;145002;920;1016;-89
2022/02/24 09:26:46;;;;;;;;;;;;;;;12.92;33.42;101745.87;145002;924;1016;-89
2022/02/24 09:29:18;;;;;;;;;;;;;;;13.23;33.65;101757.41;145002;920;1018;-88
2022/02/24 09:31:47;;;;;;;;;;;;;;;13.07;33.57;101743.84;145002;924;1016;-89
2022/02/24 09:34:15;;;;;;;;;;;;;;;13.04;34.09;101741.13;145002;920;1016;-90
2022/02/24 09:36:47;;;;;;;;;;;;;;;12.97;34.00;101725.22;145002;924;1020;-88
2022/02/24 09:39:14;;;;;;;;;;;;;;;12.84;34.30;101743.00;145002;920;1019;-90
2022/02/24 09:41:43;;;;;;;;;;;;;;;12.81;34.13;101742.00;145002;924;1017;-89
2022/02/24 09:44:09;;;;;;;;;;;;;;;12.90;34.40;101747.56;145002;920;1017;-89
2022/02/24 09:46:41;;;;;;;;;;;;;;;12.94;33.42;101733.78;145002;923;1020;-90
2022/02/24 09:49:09;;;;;;;;;;;;;;;12.99;33.56;101732.22;145002;920;1016;-88
2022/02/24 09:51:55;;;;;;;;;;;;;;;13.17;34.38;101742.44;145002;925;1021;-89
2022/02/24 09:54:21;;;;;;;;;;;;;;;13.10;32.91;101703.94;145002;919;1018;-92
2022/02/24 09:56:57;;;;;;;;;;;;;;;13.05;32.77;101700.28;145002;494;1410;-90
2022/02/24 10:04:33;;;;;;;;;;;;;;;13.26;34.46;101721.00;145002;592;1382;-89
2022/02/24 10:07:01;;;;;;;;;;;;;;;13.35;33.24;101739.63;145002;927;1018;-88
2022/02/24 10:17:28;;;;;;;;;;;;;;;13.84;31.61;101789.97;145002;716;1280;-90
2022/02/24 10:19:54;;;;;;;;;;;;;;;13.88;31.81;101804.88;145002;923;1018;-87
2022/02/24 10:22:28;;;;;;;;;;;;;;;13.69;31.89;101812.94;145002;923;1017;-87
2022/02/24 10:25:21;;;;;;;;;;;;;;;13.78;32.09;101821.97;145002;923;1015;-87
2022/02/24 10:27:52;;;;;;;;;;;;;;;14.19;31.96;101828.50;145001;919;2002;-85
2022/02/24 10:30:24;;;;;;;;;;;;;;;14.37;32.16;101825.63;145002;920;1017;-88
2022/02/24 10:32:55;;;;;;;;;;;;;;;14.36;32.23;101827.31;145002;921;1016;-92
2022/02/24 10:35:23;;;;;;;;;;;;;;;14.34;32.03;101818.56;145002;921;1017;-88
2022/02/24 10:38:06;;;;;;;;;;;;;;;14.91;32.11;101837.78;145002;920;1016;-86
2022/02/24 10:40:52;;;;;;;;;;;;;;;14.38;31.39;101825.69;145002;921;1016;-91
2022/02/24 10:43:26;;;;;;;;;;;;;;;14.53;31.90;101825.25;145002;921;1023;-88
2022/02/24 10:46:12;;;;;;;;;;;;;;;14.23;32.26;101820.81;145002;920;1022;-87
2022/02/24 10:48:52;;;;;;;;;;;;;;;14.67;31.54;101833.56;145002;921;1018;-91
2022/02/24 10:51:23;;;;;;;;;;;;;;;14.58;32.06;101826.28;145002;920;1023;-86
2022/02/24 10:54:02;;;;;;;;;;;;;;;14.76;32.11;101828.62;145002;920;1019;-88
2022/02/24 10:56:30;;;;;;;;;;;;;;;14.53;31.71;101822.66;145002;921;1020;-86
2022/02/24 10:58:57;;;;;;;;;;;;;;;14.61;32.09;101826.41;145002;920;1019;-90
2022/02/24 11:01:28;;;;;;;;;;;;;;;14.45;32.55;101821.53;145002;920;1019;-90
2022/02/24 11:03:56;;;;;;;;;;;;;;;14.74;32.38;101819.81;145002;921;1022;-89
2022/02/24 11:06:23;;;;;;;;;;;;;;;14.48;31.47;101809.44;145002;920;1018;-87
2022/02/24 11:08:50;;;;;;;;;;;;;;;14.39;30.71;101814.38;145002;920;1018;-88
2022/02/24 11:11:18;;;;;;;;;;;;;;;14.35;31.38;101807.28;145002;921;1019;-86
2022/02/24 11:13:48;;;;;;;;;;;;;;;14.55;29.68;101805.28;145002;920;1021;-88
2022/02/24 11:16:19;;;;;;;;;;;;;;;14.48;30.49;101816.41;145002;564;1531;-87
2022/02/24 11:18:46;;;;;;;;;;;;;;;14.52;31.34;101813.03;145001;925;2000;-87
2022/02/24 11:21:13;;;;;;;;;;;;;;;14.68;31.71;101822.25;145002;920;1017;-88
2022/02/24 11:23:39;;;;;;;;;;;;;;;14.63;32.16;101818.62;145002;925;1016;-88
2022/02/24 11:26:30;;;;;;;;;;;;;;;14.67;31.38;101821.38;145002;921;1016;-88
2022/02/24 11:29:23;;;;;;;;;;;;;;;14.24;32.16;101824.34;145002;920;1019;-85
2022/02/24 11:32:08;;;;;;;;;;;;;;;14.03;33.74;101819.28;145002;921;1017;-87
2022/02/24 11:34:52;;;;;;;;;;;;;;;14.21;33.62;101800.75;145002;925;1020;-88
2022/02/24 11:37:44;;;;;;;;;;;;;;;14.18;33.89;101819.81;145002;916;1022;-87
2022/02/24 11:40:32;;;;;;;;;;;;;;;14.52;32.56;101808.72;145002;925;1016;-88
2022/02/24 11:43:03;;;;;;;;;;;;;;;14.63;33.79;101813.41;145002;916;1019;-88
2022/02/24 11:45:44;;;;;;;;;;;;;;;14.64;32.69;101812.56;145002;920;1018;-87
2022/02/24 11:48:34;;;;;;;;;;;;;;;14.90;32.76;101799.37;145002;619;1469;-88
2022/02/24 11:53:41;;;;;;;;;;;;;;;15.08;32.30;101793.78;145002;906;1097;-86
2022/02/24 11:56:19;;;;;;;;;;;;;;;14.88;32.48;101797.59;145002;925;1018;-86
2022/02/24 11:58:48;;;;;;;;;;;;;;;15.06;31.82;101780.66;145002;921;1020;-86
2022/02/24 12:01:28;;;;;;;;;;;;;;;15.17;32.40;101776.63;145002;925;1019;-86
2022/02/24 12:04:02;;;;;;;;;;;;;;;15.03;31.95;101785.81;145002;921;1021;-89
2022/02/24 12:06:37;;;;;;;;;;;;;;;14.71;31.36;101777.91;145002;924;1018;-86
2022/02/24 12:09:23;;;;;;;;;;;;;;;14.76;31.20;101794.66;145002;921;1016;-85
2022/02/24 12:11:57;;;;;;;;;;;;;;;14.73;31.15;101780.56;145002;925;1021;-86
2022/02/24 12:14:43;;;;;;;;;;;;;;;14.72;31.49;101774.47;145002;920;1021;-88
2022/02/24 12:17:18;;;;;;;;;;;;;;;14.52;31.50;101776.44;145002;925;1020;-87
2022/02/24 12:20:05;;;;;;;;;;;;;;;14.46;31.94;101774.56;145002;921;1020;-86
2022/02/24 12:22:32;;;;;;;;;;;;;;;14.83;31.54;101777.41;145002;924;1017;-86
2022/02/24 12:25:28;;;;;;;;;;;;;;;15.03;31.82;101775.34;145002;904;1020;-86
2022/02/24 12:28:15;;;;;;;;;;;;;;;14.83;31.75;101767.84;145002;924;1022;-85
2022/02/24 12:30:53;;;;;;;;;;;;;;;14.90;31.84;101765.41;145002;921;1020;-87
2022/02/24 12:33:19;;;;;;;;;;;;;;;14.98;32.19;101767.38;145002;925;1019;-85
2022/02/24 12:35:46;;;;;;;;;;;;;;;14.93;32.36;101757.66;145002;917;1019;-87
2022/02/24 12:38:14;;;;;;;;;;;;;;;14.76;32.43;101758.06;145002;924;1018;-88
2022/02/24 12:40:47;;;;;;;;;;;;;;;14.30;31.93;101761.84;145001;921;1998;-86
2022/02/24 12:43:15;;;;;;;;;;;;;;;14.52;31.75;101773.84;145002;926;1019;-87
2022/02/24 12:45:41;;;;;;;;;;;;;;;14.14;32.37;101766.59;145002;922;1018;-85
2022/02/24 12:48:20;;;;;;;;;;;;;;;14.12;32.26;101760.41;145002;927;1021;-88
2022/02/24 12:50:53;;;;;;;;;;;;;;;14.34;32.93;101750.66;145002;922;1018;-87
2022/02/24 12:53:37;;;;;;;;;;;;;;;14.19;33.09;101755.37;145002;926;1018;-86
2022/02/24 12:56:09;;;;;;;;;;;;;;;14.08;33.11;101753.34;145002;923;1020;-85
2022/02/24 12:58:36;;;;;;;;;;;;;;;14.17;33.13;101744.91;145002;927;1017;-90
2022/02/24 13:01:02;;;;;;;;;;;;;;;14.12;33.01;101749.97;145002;923;1017;-93
2022/02/24 13:03:35;;;;;;;;;;;;;;;14.03;33.80;101747.09;145002;927;1020;-87
2022/02/24 13:14:03;;;;;;;;;;;;;;;13.65;33.46;101731.06;145002;614;1356;-89
2022/02/24 13:16:30;;;;;;;;;;;;;;;13.53;34.26;101730.66;145002;925;1016;-86
2022/02/24 13:19:05;;;;;;;;;;;;;;;13.52;33.76;101740.22;145002;925;1017;-92
2022/02/24 13:21:32;;;;;;;;;;;;;;;13.51;34.31;101727.12;145001;709;2000;-90
2022/02/24 13:24:00;;;;;;;;;;;;;;;13.33;34.16;101728.25;145002;926;1021;-90
2022/02/24 13:26:34;;;;;;;;;;;;;;;13.41;34.62;101723.31;145002;923;1016;-88
2022/02/24 13:29:07;;;;;;;;;;;;;;;13.53;34.04;101730.66;145002;926;1016;-90
2022/02/24 13:31:41;;;;;;;;;;;;;;;13.42;33.86;101720.72;145002;922;1017;-88
2022/02/24 14:00:14;;;;;;;;;;;;;;;13.79;34.10;101734.13;145002;635;1406;-88
2022/02/24 14:07:55;;;;;;;;;;;;;;;14.04;33.33;101714.91;145002;574;1441;-90
2022/02/24 14:10:21;;;;;;;;;;;;;;;14.28;33.07;101724.34;145002;927;1022;-89
2022/02/24 14:12:50;;;;;;;;;;;;;;;14.33;33.15;101723.66;145002;923;1017;-87
2022/02/24 14:15:17;;;;;;;;;;;;;;;14.29;32.96;101720.91;145002;926;1016;-88
2022/02/24 14:17:46;;;;;;;;;;;;;;;14.26;32.79;101706.00;145002;923;1016;-91
2022/02/24 14:22:47;;;;;;;;;;;;;;;13.82;33.13;101708.13;145002;666;1306;-88
2022/02/24 14:25:13;;;;;;;;;;;;;;;14.10;33.00;101712.50;145002;925;1019;-87
2022/02/24 14:30:19;;;;;;;;;;;;;;;13.82;33.66;101722.91;145002;923;1020;-90
2022/02/24 15:58:02;;;;;;;;;;;;;;;13.71;35.05;101736.50;145003;812;1181;-90
2022/02/24 16:00:32;;;;;;;;;;;;;;;13.82;34.50;101733.34;145003;922;1016;-88
2022/02/24 16:02:59;;;;;;;;;;;;;;;13.66;34.52;101732.81;145003;922;1017;-89
2022/02/24 16:05:25;;;;;;;;;;;;;;;13.81;34.40;101742.91;145003;924;1016;-89
2022/02/24 16:07:54;;;;;;;;;;;;;;;13.71;34.93;101748.63;145003;924;1017;-90
2022/02/24 16:10:20;;;;;;;;;;;;;;;13.74;34.95;101741.81;145003;925;1018;-89
2022/02/24 16:12:54;;;;;;;;;;;;;;;13.71;34.17;101748.63;145003;924;1016;-90
2022/02/24 16:15:20;;;;;;;;;;;;;;;13.73;34.47;101752.22;145002;924;1017;-89
2022/02/24 16:17:47;;;;;;;;;;;;;;;13.84;34.31;101752.53;145002;924;1017;-90
2022/02/24 16:20:15;;;;;;;;;;;;;;;13.69;33.90;101751.19;145002;924;1018;-90
2022/02/24 16:22:41;;;;;;;;;;;;;;;13.94;34.44;101752.88;145002;924;1021;-89
2022/02/24 16:25:27;;;;;;;;;;;;;;;14.05;34.28;101754.97;145002;925;1018;-85
2022/02/24 16:27:54;;;;;;;;;;;;;;;14.06;33.76;101761.94;145002;924;1018;-91
2022/02/24 16:30:20;;;;;;;;;;;;;;;14.03;33.82;101765.37;145002;924;1021;-89
2022/02/24 16:32:49;;;;;;;;;;;;;;;14.17;34.02;101768.41;145002;921;1018;-89
2022/02/24 16:35:16;;;;;;;;;;;;;;;14.21;33.80;101772.91;145002;923;1017;-89
2022/02/24 16:37:44;;;;;;;;;;;;;;;14.02;33.47;101771.41;145002;924;1016;-87
2022/02/24 16:40:27;;;;;;;;;;;;;;;14.32;34.10;101781.06;145002;924;1021;-89
2022/02/24 16:42:54;;;;;;;;;;;;;;;14.21;33.89;101775.50;145001;924;2000;-89
2022/02/24 16:45:21;;;;;;;;;;;;;;;14.19;34.41;101776.28;145002;924;1019;-89
2022/02/24 16:47:50;;;;;;;;;;;;;;;14.18;34.54;101779.75;145002;924;1018;-91
2022/02/24 16:50:17;;;;;;;;;;;;;;;13.92;34.68;101787.62;145002;923;1017;-87
2022/02/24 16:52:43;;;;;;;;;;;;;;;14.08;34.56;101791.62;145002;924;1016;-90
2022/02/24 16:55:10;;;;;;;;;;;;;;;14.11;34.58;101786.47;145002;924;1017;-89
2022/02/24 16:57:36;;;;;;;;;;;;;;;14.17;34.65;101791.03;145002;924;1021;-88
2022/02/24 17:00:14;;;;;;;;;;;;;;;14.20;34.55;101788.50;145002;924;1016;-91
2022/02/24 17:02:43;;;;;;;;;;;;;;;14.27;34.67;101798.31;145002;924;1022;-87
2022/02/24 17:10:24;;;;;;;;;;;;;;;14.38;35.32;101799.56;145002;464;1417;-89
2022/02/24 17:12:50;;;;;;;;;;;;;;;14.41;35.00;101799.66;145002;926;1016;-87
2022/02/24 17:23:12;;;;;;;;;;;;;;;14.52;35.73;101803.47;145002;585;1417;-89
